sensor_id;sensor_type;location;lat;lon;timestamp;P1;durP1;ratioP1;P2;durP2;ratioP2
8632;SDS011;4354;49.832;10.746;2022-10-18T00:00:03;10.33;;;5.87;;
8632;SDS011;4354;49.832;10.746;2022-10-18T00:02:31;9.43;;;4.83;;
8632;SDS011;4354;49.832;10.746;2022-10-18T00:04:58;8.73;;;5.83;;
8632;SDS011;4354;49.832;10.746;2022-10-18T00:07:25;7.67;;;5.53;;
8632;SDS011;4354;49.832;10.746;2022-10-18T00:09:51;8.67;;;5.53;;
8632;SDS011;4354;49.832;10.746;2022-10-18T00:12:18;14.07;;;5.40;;
8632;SDS011;4354;49.832;10.746;2022-10-18T00:14:47;10.73;;;6.27;;
8632;SDS011;4354;49.832;10.746;2022-10-18T00:17:15;10.00;;;6.23;;
8632;SDS011;4354;49.832;10.746;2022-10-18T00:19:42;10.40;;;5.47;;
8632;SDS011;4354;49.832;10.746;2022-10-18T00:22:09;8.00;;;6.37;;
8632;SDS011;4354;49.832;10.746;2022-10-18T00:24:36;10.27;;;5.73;;
8632;SDS011;4354;49.832;10.746;2022-10-18T00:27:03;10.10;;;5.27;;
8632;SDS011;4354;49.832;10.746;2022-10-18T00:29:29;15.57;;;6.13;;
8632;SDS011;4354;49.832;10.746;2022-10-18T00:31:56;10.57;;;6.10;;
8632;SDS011;4354;49.832;10.746;2022-10-18T00:34:23;7.63;;;5.47;;
8632;SDS011;4354;49.832;10.746;2022-10-18T00:36:50;8.03;;;5.73;;
8632;SDS011;4354;49.832;10.746;2022-10-18T00:39:17;13.10;;;6.20;;
8632;SDS011;4354;49.832;10.746;2022-10-18T00:41:46;8.60;;;5.50;;
8632;SDS011;4354;49.832;10.746;2022-10-18T00:46:43;8.23;;;5.17;;
8632;SDS011;4354;49.832;10.746;2022-10-18T00:51:40;8.53;;;5.63;;
8632;SDS011;4354;49.832;10.746;2022-10-18T00:54:10;12.37;;;6.03;;
8632;SDS011;4354;49.832;10.746;2022-10-18T00:56:38;14.33;;;5.50;;
8632;SDS011;4354;49.832;10.746;2022-10-18T00:59:05;9.03;;;5.30;;
8632;SDS011;4354;49.832;10.746;2022-10-18T01:01:32;11.40;;;6.10;;
8632;SDS011;4354;49.832;10.746;2022-10-18T01:03:59;13.93;;;5.20;;
8632;SDS011;4354;49.832;10.746;2022-10-18T01:06:26;7.47;;;5.50;;
8632;SDS011;4354;49.832;10.746;2022-10-18T01:08:57;7.40;;;5.27;;
8632;SDS011;4354;49.832;10.746;2022-10-18T01:14:45;14.47;;;5.90;;
8632;SDS011;4354;49.832;10.746;2022-10-18T01:17:16;8.10;;;5.20;;
8632;SDS011;4354;49.832;10.746;2022-10-18T01:22:26;9.13;;;5.90;;
8632;SDS011;4354;49.832;10.746;2022-10-18T01:32:41;11.23;;;5.50;;
8632;SDS011;4354;49.832;10.746;2022-10-18T01:35:10;13.00;;;6.07;;
8632;SDS011;4354;49.832;10.746;2022-10-18T01:37:39;7.53;;;5.43;;
8632;SDS011;4354;49.832;10.746;2022-10-18T01:40:07;5.83;;;4.60;;
8632;SDS011;4354;49.832;10.746;2022-10-18T01:42:37;5.80;;;4.40;;
8632;SDS011;4354;49.832;10.746;2022-10-18T01:45:05;7.30;;;4.13;;
8632;SDS011;4354;49.832;10.746;2022-10-18T01:47:33;6.30;;;4.33;;
8632;SDS011;4354;49.832;10.746;2022-10-18T01:50:02;8.03;;;4.20;;
8632;SDS011;4354;49.832;10.746;2022-10-18T01:52:29;6.27;;;4.50;;
8632;SDS011;4354;49.832;10.746;2022-10-18T01:54:57;6.27;;;4.43;;
8632;SDS011;4354;49.832;10.746;2022-10-18T01:57:39;6.57;;;4.50;;
8632;SDS011;4354;49.832;10.746;2022-10-18T02:00:14;5.17;;;4.10;;
8632;SDS011;4354;49.832;10.746;2022-10-18T02:08:07;9.33;;;5.00;;
8632;SDS011;4354;49.832;10.746;2022-10-18T02:13:19;8.07;;;4.80;;
8632;SDS011;4354;49.832;10.746;2022-10-18T02:15:51;9.13;;;4.83;;
8632;SDS011;4354;49.832;10.746;2022-10-18T02:18:22;8.50;;;5.13;;
8632;SDS011;4354;49.832;10.746;2022-10-18T02:20:53;8.10;;;4.90;;
8632;SDS011;4354;49.832;10.746;2022-10-18T02:23:22;9.80;;;5.30;;
8632;SDS011;4354;49.832;10.746;2022-10-18T02:25:50;7.97;;;4.10;;
8632;SDS011;4354;49.832;10.746;2022-10-18T02:28:18;10.33;;;4.93;;
8632;SDS011;4354;49.832;10.746;2022-10-18T02:30:47;5.43;;;4.53;;
8632;SDS011;4354;49.832;10.746;2022-10-18T02:33:31;6.37;;;4.73;;
8632;SDS011;4354;49.832;10.746;2022-10-18T02:36:21;6.90;;;4.40;;
8632;SDS011;4354;49.832;10.746;2022-10-18T02:38:58;4.80;;;4.10;;
8632;SDS011;4354;49.832;10.746;2022-10-18T02:41:29;5.00;;;4.27;;
8632;SDS011;4354;49.832;10.746;2022-10-18T02:43:57;4.93;;;4.43;;
8632;SDS011;4354;49.832;10.746;2022-10-18T02:46:23;5.27;;;4.63;;
8632;SDS011;4354;49.832;10.746;2022-10-18T02:48:55;19.00;;;7.57;;
8632;SDS011;4354;49.832;10.746;2022-10-18T02:51:22;14.63;;;7.73;;
8632;SDS011;4354;49.832;10.746;2022-10-18T02:53:49;10.53;;;6.97;;
8632;SDS011;4354;49.832;10.746;2022-10-18T02:56:16;11.53;;;8.47;;
8632;SDS011;4354;49.832;10.746;2022-10-18T02:58:43;13.17;;;8.20;;
8632;SDS011;4354;49.832;10.746;2022-10-18T03:01:09;13.97;;;8.13;;
8632;SDS011;4354;49.832;10.746;2022-10-18T03:03:36;15.20;;;7.13;;
8632;SDS011;4354;49.832;10.746;2022-10-18T03:06:03;14.27;;;6.83;;
8632;SDS011;4354;49.832;10.746;2022-10-18T03:08:30;14.53;;;6.70;;
8632;SDS011;4354;49.832;10.746;2022-10-18T03:10:57;16.80;;;11.57;;
8632;SDS011;4354;49.832;10.746;2022-10-18T03:13:23;15.03;;;7.63;;
8632;SDS011;4354;49.832;10.746;2022-10-18T03:15:50;13.70;;;6.23;;
8632;SDS011;4354;49.832;10.746;2022-10-18T03:18:17;7.70;;;5.50;;
8632;SDS011;4354;49.832;10.746;2022-10-18T03:20:43;7.43;;;4.50;;
8632;SDS011;4354;49.832;10.746;2022-10-18T03:23:10;6.43;;;5.10;;
8632;SDS011;4354;49.832;10.746;2022-10-18T03:25:37;6.60;;;4.70;;
8632;SDS011;4354;49.832;10.746;2022-10-18T03:28:09;7.77;;;5.33;;
8632;SDS011;4354;49.832;10.746;2022-10-18T03:30:36;7.87;;;5.17;;
8632;SDS011;4354;49.832;10.746;2022-10-18T03:33:04;9.73;;;5.77;;
8632;SDS011;4354;49.832;10.746;2022-10-18T03:35:31;9.17;;;5.60;;
8632;SDS011;4354;49.832;10.746;2022-10-18T03:37:58;8.17;;;5.17;;
8632;SDS011;4354;49.832;10.746;2022-10-18T03:40:25;7.20;;;5.17;;
8632;SDS011;4354;49.832;10.746;2022-10-18T03:42:51;7.63;;;5.73;;
8632;SDS011;4354;49.832;10.746;2022-10-18T03:45:18;8.87;;;5.73;;
8632;SDS011;4354;49.832;10.746;2022-10-18T03:47:45;11.67;;;5.57;;
8632;SDS011;4354;49.832;10.746;2022-10-18T03:50:11;7.97;;;5.67;;
8632;SDS011;4354;49.832;10.746;2022-10-18T03:52:38;8.73;;;5.13;;
8632;SDS011;4354;49.832;10.746;2022-10-18T03:55:05;8.67;;;5.57;;
8632;SDS011;4354;49.832;10.746;2022-10-18T03:57:32;9.20;;;6.00;;
8632;SDS011;4354;49.832;10.746;2022-10-18T03:59:59;10.10;;;5.60;;
8632;SDS011;4354;49.832;10.746;2022-10-18T04:02:25;9.73;;;5.53;;
8632;SDS011;4354;49.832;10.746;2022-10-18T04:04:52;9.10;;;4.93;;
8632;SDS011;4354;49.832;10.746;2022-10-18T04:07:19;8.63;;;6.10;;
8632;SDS011;4354;49.832;10.746;2022-10-18T04:09:46;8.13;;;5.40;;
8632;SDS011;4354;49.832;10.746;2022-10-18T04:12:12;7.90;;;6.10;;
8632;SDS011;4354;49.832;10.746;2022-10-18T04:14:39;8.63;;;5.90;;
8632;SDS011;4354;49.832;10.746;2022-10-18T04:17:06;9.60;;;5.70;;
8632;SDS011;4354;49.832;10.746;2022-10-18T04:19:33;10.77;;;5.93;;
8632;SDS011;4354;49.832;10.746;2022-10-18T04:22:00;8.90;;;5.43;;
8632;SDS011;4354;49.832;10.746;2022-10-18T04:24:26;6.43;;;5.43;;
8632;SDS011;4354;49.832;10.746;2022-10-18T04:26:53;8.43;;;5.27;;
8632;SDS011;4354;49.832;10.746;2022-10-18T04:29:20;6.10;;;5.10;;
8632;SDS011;4354;49.832;10.746;2022-10-18T04:31:47;8.30;;;4.57;;
8632;SDS011;4354;49.832;10.746;2022-10-18T04:34:14;6.93;;;4.97;;
8632;SDS011;4354;49.832;10.746;2022-10-18T04:36:40;9.67;;;5.73;;
8632;SDS011;4354;49.832;10.746;2022-10-18T04:39:07;8.30;;;5.57;;
8632;SDS011;4354;49.832;10.746;2022-10-18T04:41:34;6.53;;;5.50;;
8632;SDS011;4354;49.832;10.746;2022-10-18T04:44:01;7.07;;;5.47;;
8632;SDS011;4354;49.832;10.746;2022-10-18T04:46:28;10.93;;;6.57;;
8632;SDS011;4354;49.832;10.746;2022-10-18T04:48:54;8.87;;;6.10;;
8632;SDS011;4354;49.832;10.746;2022-10-18T04:51:21;11.40;;;6.67;;
8632;SDS011;4354;49.832;10.746;2022-10-18T04:53:48;9.27;;;5.78;;
8632;SDS011;4354;49.832;10.746;2022-10-18T04:56:15;9.90;;;6.90;;
8632;SDS011;4354;49.832;10.746;2022-10-18T04:58:41;6.43;;;5.83;;
8632;SDS011;4354;49.832;10.746;2022-10-18T05:01:08;6.40;;;5.67;;
8632;SDS011;4354;49.832;10.746;2022-10-18T05:03:35;6.47;;;5.87;;
8632;SDS011;4354;49.832;10.746;2022-10-18T05:06:02;8.10;;;5.97;;
8632;SDS011;4354;49.832;10.746;2022-10-18T05:08:29;7.63;;;6.03;;
8632;SDS011;4354;49.832;10.746;2022-10-18T05:10:57;12.57;;;7.50;;
8632;SDS011;4354;49.832;10.746;2022-10-18T05:13:25;9.67;;;6.87;;
8632;SDS011;4354;49.832;10.746;2022-10-18T05:15:52;14.20;;;6.90;;
8632;SDS011;4354;49.832;10.746;2022-10-18T05:18:18;6.70;;;5.63;;
8632;SDS011;4354;49.832;10.746;2022-10-18T05:20:45;10.70;;;6.67;;
8632;SDS011;4354;49.832;10.746;2022-10-18T05:23:12;10.90;;;6.27;;
8632;SDS011;4354;49.832;10.746;2022-10-18T05:25:39;9.77;;;5.97;;
8632;SDS011;4354;49.832;10.746;2022-10-18T05:28:09;13.57;;;6.00;;
8632;SDS011;4354;49.832;10.746;2022-10-18T05:31:06;6.63;;;4.73;;
8632;SDS011;4354;49.832;10.746;2022-10-18T05:33:34;11.10;;;4.90;;
8632;SDS011;4354;49.832;10.746;2022-10-18T05:36:01;6.00;;;4.60;;
8632;SDS011;4354;49.832;10.746;2022-10-18T05:38:28;5.67;;;5.03;;
8632;SDS011;4354;49.832;10.746;2022-10-18T05:40:56;4.30;;;3.90;;
8632;SDS011;4354;49.832;10.746;2022-10-18T05:43:26;6.73;;;4.40;;
8632;SDS011;4354;49.832;10.746;2022-10-18T05:45:54;4.83;;;4.30;;
8632;SDS011;4354;49.832;10.746;2022-10-18T05:48:21;5.27;;;4.13;;
8632;SDS011;4354;49.832;10.746;2022-10-18T05:50:47;4.90;;;4.20;;
8632;SDS011;4354;49.832;10.746;2022-10-18T05:53:14;5.07;;;4.40;;
8632;SDS011;4354;49.832;10.746;2022-10-18T05:56:01;7.97;;;4.53;;
8632;SDS011;4354;49.832;10.746;2022-10-18T05:58:28;11.27;;;5.13;;
8632;SDS011;4354;49.832;10.746;2022-10-18T06:00:58;6.13;;;4.73;;
8632;SDS011;4354;49.832;10.746;2022-10-18T06:03:26;4.97;;;4.40;;
8632;SDS011;4354;49.832;10.746;2022-10-18T06:05:57;6.93;;;5.20;;
8632;SDS011;4354;49.832;10.746;2022-10-18T06:08:28;4.80;;;4.40;;
8632;SDS011;4354;49.832;10.746;2022-10-18T06:10:55;6.53;;;5.23;;
8632;SDS011;4354;49.832;10.746;2022-10-18T06:13:22;7.50;;;5.10;;
8632;SDS011;4354;49.832;10.746;2022-10-18T06:15:49;11.83;;;5.63;;
8632;SDS011;4354;49.832;10.746;2022-10-18T06:18:15;8.27;;;5.60;;
8632;SDS011;4354;49.832;10.746;2022-10-18T06:20:42;9.57;;;5.70;;
8632;SDS011;4354;49.832;10.746;2022-10-18T06:23:09;9.43;;;6.30;;
8632;SDS011;4354;49.832;10.746;2022-10-18T06:25:35;9.67;;;6.27;;
8632;SDS011;4354;49.832;10.746;2022-10-18T06:28:03;7.17;;;5.73;;
8632;SDS011;4354;49.832;10.746;2022-10-18T06:30:35;9.87;;;6.70;;
8632;SDS011;4354;49.832;10.746;2022-10-18T06:33:02;10.77;;;6.67;;
8632;SDS011;4354;49.832;10.746;2022-10-18T06:35:29;7.77;;;6.23;;
8632;SDS011;4354;49.832;10.746;2022-10-18T06:37:55;9.30;;;7.00;;
8632;SDS011;4354;49.832;10.746;2022-10-18T06:40:23;9.10;;;7.80;;
8632;SDS011;4354;49.832;10.746;2022-10-18T06:42:49;9.07;;;7.60;;
8632;SDS011;4354;49.832;10.746;2022-10-18T06:45:25;8.67;;;7.10;;
8632;SDS011;4354;49.832;10.746;2022-10-18T06:47:52;12.67;;;8.70;;
8632;SDS011;4354;49.832;10.746;2022-10-18T06:50:19;13.33;;;9.87;;
8632;SDS011;4354;49.832;10.746;2022-10-18T06:52:45;12.43;;;10.23;;
8632;SDS011;4354;49.832;10.746;2022-10-18T06:55:13;14.37;;;10.40;;
8632;SDS011;4354;49.832;10.746;2022-10-18T06:57:40;14.33;;;9.63;;
8632;SDS011;4354;49.832;10.746;2022-10-18T07:00:07;17.40;;;9.90;;
8632;SDS011;4354;49.832;10.746;2022-10-18T07:02:34;11.30;;;8.73;;
8632;SDS011;4354;49.832;10.746;2022-10-18T07:05:02;15.63;;;9.37;;
8632;SDS011;4354;49.832;10.746;2022-10-18T07:07:29;9.90;;;8.60;;
8632;SDS011;4354;49.832;10.746;2022-10-18T07:09:57;10.65;;;8.48;;
8632;SDS011;4354;49.832;10.746;2022-10-18T07:12:23;10.97;;;8.90;;
8632;SDS011;4354;49.832;10.746;2022-10-18T07:14:50;10.30;;;8.73;;
8632;SDS011;4354;49.832;10.746;2022-10-18T07:17:17;14.30;;;8.80;;
8632;SDS011;4354;49.832;10.746;2022-10-18T07:19:44;11.52;;;8.35;;
8632;SDS011;4354;49.832;10.746;2022-10-18T07:22:10;10.45;;;7.22;;
8632;SDS011;4354;49.832;10.746;2022-10-18T07:24:37;13.40;;;6.85;;
8632;SDS011;4354;49.832;10.746;2022-10-18T07:27:04;10.02;;;6.22;;
8632;SDS011;4354;49.832;10.746;2022-10-18T07:29:31;9.13;;;6.20;;
8632;SDS011;4354;49.832;10.746;2022-10-18T07:31:58;6.93;;;5.35;;
8632;SDS011;4354;49.832;10.746;2022-10-18T07:34:25;11.27;;;5.82;;
8632;SDS011;4354;49.832;10.746;2022-10-18T07:36:54;7.80;;;5.63;;
8632;SDS011;4354;49.832;10.746;2022-10-18T07:39:20;9.70;;;6.25;;
8632;SDS011;4354;49.832;10.746;2022-10-18T07:41:47;8.20;;;5.45;;
8632;SDS011;4354;49.832;10.746;2022-10-18T07:44:14;7.65;;;5.32;;
8632;SDS011;4354;49.832;10.746;2022-10-18T07:46:40;7.88;;;5.22;;
8632;SDS011;4354;49.832;10.746;2022-10-18T07:49:07;9.07;;;5.78;;
8632;SDS011;4354;49.832;10.746;2022-10-18T07:51:34;10.23;;;6.10;;
8632;SDS011;4354;49.832;10.746;2022-10-18T07:54:01;9.60;;;5.60;;
8632;SDS011;4354;49.832;10.746;2022-10-18T07:56:28;8.27;;;5.97;;
8632;SDS011;4354;49.832;10.746;2022-10-18T07:58:55;7.13;;;6.10;;
8632;SDS011;4354;49.832;10.746;2022-10-18T08:01:22;9.63;;;6.15;;
8632;SDS011;4354;49.832;10.746;2022-10-18T08:03:50;7.00;;;4.80;;
8632;SDS011;4354;49.832;10.746;2022-10-18T08:06:19;8.32;;;6.22;;
8632;SDS011;4354;49.832;10.746;2022-10-18T08:08:47;11.38;;;6.50;;
8632;SDS011;4354;49.832;10.746;2022-10-18T08:11:18;11.13;;;6.20;;
8632;SDS011;4354;49.832;10.746;2022-10-18T08:13:47;8.60;;;6.03;;
8632;SDS011;4354;49.832;10.746;2022-10-18T08:16:15;10.05;;;6.45;;
8632;SDS011;4354;49.832;10.746;2022-10-18T08:18:44;8.05;;;5.90;;
8632;SDS011;4354;49.832;10.746;2022-10-18T08:21:11;7.68;;;5.07;;
8632;SDS011;4354;49.832;10.746;2022-10-18T08:23:39;9.88;;;5.65;;
8632;SDS011;4354;49.832;10.746;2022-10-18T08:26:08;11.40;;;5.90;;
8632;SDS011;4354;49.832;10.746;2022-10-18T08:28:37;7.93;;;6.00;;
8632;SDS011;4354;49.832;10.746;2022-10-18T08:31:05;10.85;;;5.88;;
8632;SDS011;4354;49.832;10.746;2022-10-18T08:33:33;8.55;;;5.80;;
8632;SDS011;4354;49.832;10.746;2022-10-18T08:36:02;7.10;;;5.40;;
8632;SDS011;4354;49.832;10.746;2022-10-18T08:38:31;10.15;;;5.30;;
8632;SDS011;4354;49.832;10.746;2022-10-18T08:44:26;8.40;;;5.22;;
8632;SDS011;4354;49.832;10.746;2022-10-18T08:47:04;9.03;;;5.50;;
8632;SDS011;4354;49.832;10.746;2022-10-18T08:52:34;11.45;;;5.45;;
8632;SDS011;4354;49.832;10.746;2022-10-18T08:58:18;9.23;;;5.68;;
8632;SDS011;4354;49.832;10.746;2022-10-18T09:03:47;9.48;;;5.82;;
8632;SDS011;4354;49.832;10.746;2022-10-18T09:12:06;7.78;;;5.53;;
8632;SDS011;4354;49.832;10.746;2022-10-18T09:17:56;12.15;;;6.35;;
8632;SDS011;4354;49.832;10.746;2022-10-18T09:26:19;10.05;;;5.30;;
8632;SDS011;4354;49.832;10.746;2022-10-18T09:28:54;8.57;;;5.68;;
8632;SDS011;4354;49.832;10.746;2022-10-18T09:31:46;8.77;;;5.80;;
8632;SDS011;4354;49.832;10.746;2022-10-18T09:34:27;8.57;;;6.05;;
8632;SDS011;4354;49.832;10.746;2022-10-18T09:37:02;11.45;;;5.72;;
8632;SDS011;4354;49.832;10.746;2022-10-18T09:39:38;11.90;;;5.28;;
8632;SDS011;4354;49.832;10.746;2022-10-18T09:42:14;9.73;;;5.55;;
8632;SDS011;4354;49.832;10.746;2022-10-18T09:44:49;8.25;;;5.22;;
8632;SDS011;4354;49.832;10.746;2022-10-18T09:47:43;10.32;;;5.60;;
8632;SDS011;4354;49.832;10.746;2022-10-18T09:50:35;9.57;;;5.72;;
8632;SDS011;4354;49.832;10.746;2022-10-18T09:56:07;9.00;;;5.30;;
8632;SDS011;4354;49.832;10.746;2022-10-18T10:01:07;8.52;;;5.22;;
8632;SDS011;4354;49.832;10.746;2022-10-18T10:03:36;8.85;;;5.25;;
8632;SDS011;4354;49.832;10.746;2022-10-18T10:08:39;8.38;;;5.05;;
8632;SDS011;4354;49.832;10.746;2022-10-18T10:11:30;8.52;;;5.32;;
8632;SDS011;4354;49.832;10.746;2022-10-18T10:14:00;12.60;;;6.15;;
8632;SDS011;4354;49.832;10.746;2022-10-18T10:16:42;10.15;;;5.63;;
8632;SDS011;4354;49.832;10.746;2022-10-18T10:19:24;7.90;;;5.97;;
8632;SDS011;4354;49.832;10.746;2022-10-18T10:22:05;10.68;;;6.28;;
8632;SDS011;4354;49.832;10.746;2022-10-18T10:24:48;10.50;;;6.40;;
8632;SDS011;4354;49.832;10.746;2022-10-18T10:27:36;7.97;;;6.43;;
8632;SDS011;4354;49.832;10.746;2022-10-18T10:30:25;10.38;;;7.22;;
8632;SDS011;4354;49.832;10.746;2022-10-18T10:33:00;8.85;;;7.10;;
8632;SDS011;4354;49.832;10.746;2022-10-18T10:35:35;13.55;;;7.22;;
8632;SDS011;4354;49.832;10.746;2022-10-18T10:38:22;10.60;;;8.15;;
8632;SDS011;4354;49.832;10.746;2022-10-18T10:40:51;10.48;;;8.95;;
8632;SDS011;4354;49.832;10.746;2022-10-18T10:43:22;9.73;;;7.95;;
8632;SDS011;4354;49.832;10.746;2022-10-18T10:46:09;10.73;;;7.47;;
8632;SDS011;4354;49.832;10.746;2022-10-18T10:48:49;10.15;;;5.43;;
8632;SDS011;4354;49.832;10.746;2022-10-18T10:51:40;9.20;;;5.55;;
8632;SDS011;4354;49.832;10.746;2022-10-18T10:54:15;7.85;;;5.90;;
8632;SDS011;4354;49.832;10.746;2022-10-18T10:59:45;9.27;;;6.53;;
8632;SDS011;4354;49.832;10.746;2022-10-18T11:04:56;5.57;;;4.60;;
8632;SDS011;4354;49.832;10.746;2022-10-18T11:07:46;9.45;;;4.75;;
8632;SDS011;4354;49.832;10.746;2022-10-18T11:10:14;7.75;;;4.88;;
8632;SDS011;4354;49.832;10.746;2022-10-18T11:12:45;9.10;;;6.13;;
8632;SDS011;4354;49.832;10.746;2022-10-18T11:20:53;7.55;;;4.28;;
8632;SDS011;4354;49.832;10.746;2022-10-18T11:23:27;6.55;;;4.03;;
8632;SDS011;4354;49.832;10.746;2022-10-18T11:36:58;7.05;;;5.35;;
8632;SDS011;4354;49.832;10.746;2022-10-18T11:42:34;7.18;;;5.10;;
8632;SDS011;4354;49.832;10.746;2022-10-18T11:45:24;6.30;;;4.53;;
8632;SDS011;4354;49.832;10.746;2022-10-18T12:05:46;7.88;;;6.00;;
8632;SDS011;4354;49.832;10.746;2022-10-18T12:10:49;7.05;;;5.40;;
8632;SDS011;4354;49.832;10.746;2022-10-18T12:13:47;14.93;;;6.60;;
8632;SDS011;4354;49.832;10.746;2022-10-18T12:16:18;9.80;;;6.18;;
8632;SDS011;4354;49.832;10.746;2022-10-18T12:19:41;8.27;;;4.40;;
8632;SDS011;4354;49.832;10.746;2022-10-18T12:22:04;5.28;;;4.13;;
8632;SDS011;4354;49.832;10.746;2022-10-18T12:24:39;7.53;;;3.83;;
8632;SDS011;4354;49.832;10.746;2022-10-18T12:27:08;6.53;;;4.60;;
8632;SDS011;4354;49.832;10.746;2022-10-18T12:29:40;6.57;;;3.58;;
8632;SDS011;4354;49.832;10.746;2022-10-18T12:32:13;6.80;;;4.68;;
8632;SDS011;4354;49.832;10.746;2022-10-18T12:34:51;5.68;;;3.38;;
8632;SDS011;4354;49.832;10.746;2022-10-18T12:40:04;6.07;;;4.03;;
8632;SDS011;4354;49.832;10.746;2022-10-18T12:42:46;5.18;;;2.85;;
8632;SDS011;4354;49.832;10.746;2022-10-18T12:45:31;5.20;;;3.20;;
8632;SDS011;4354;49.832;10.746;2022-10-18T12:48:04;3.58;;;2.30;;
8632;SDS011;4354;49.832;10.746;2022-10-18T12:50:35;5.28;;;2.67;;
8632;SDS011;4354;49.832;10.746;2022-10-18T12:55:40;4.45;;;2.70;;
8632;SDS011;4354;49.832;10.746;2022-10-18T13:03:27;2.25;;;1.88;;
8632;SDS011;4354;49.832;10.746;2022-10-18T13:06:06;2.55;;;2.10;;
8632;SDS011;4354;49.832;10.746;2022-10-18T13:08:36;3.60;;;2.35;;
8632;SDS011;4354;49.832;10.746;2022-10-18T13:24:23;5.40;;;1.98;;
8632;SDS011;4354;49.832;10.746;2022-10-18T13:26:59;3.33;;;1.92;;
8632;SDS011;4354;49.832;10.746;2022-10-18T13:41:10;4.72;;;2.60;;
8632;SDS011;4354;49.832;10.746;2022-10-18T13:46:22;6.13;;;2.30;;
8632;SDS011;4354;49.832;10.746;2022-10-18T14:00:23;4.53;;;2.17;;
8632;SDS011;4354;49.832;10.746;2022-10-18T14:03:33;4.03;;;2.50;;
8632;SDS011;4354;49.832;10.746;2022-10-18T14:06:24;3.90;;;2.80;;
8632;SDS011;4354;49.832;10.746;2022-10-18T14:09:02;3.95;;;1.98;;
8632;SDS011;4354;49.832;10.746;2022-10-18T14:11:54;4.22;;;2.53;;
8632;SDS011;4354;49.832;10.746;2022-10-18T14:16:57;2.67;;;1.85;;
8632;SDS011;4354;49.832;10.746;2022-10-18T14:19:33;3.15;;;1.80;;
8632;SDS011;4354;49.832;10.746;2022-10-18T14:24:47;3.30;;;2.35;;
8632;SDS011;4354;49.832;10.746;2022-10-18T14:27:20;3.75;;;1.98;;
8632;SDS011;4354;49.832;10.746;2022-10-18T14:29:49;4.70;;;2.38;;
8632;SDS011;4354;49.832;10.746;2022-10-18T14:32:41;6.97;;;2.50;;
8632;SDS011;4354;49.832;10.746;2022-10-18T14:35:22;3.78;;;2.30;;
8632;SDS011;4354;49.832;10.746;2022-10-18T14:37:59;5.40;;;3.20;;
8632;SDS011;4354;49.832;10.746;2022-10-18T14:40:37;6.88;;;2.90;;
8632;SDS011;4354;49.832;10.746;2022-10-18T14:43:12;7.68;;;2.88;;
8632;SDS011;4354;49.832;10.746;2022-10-18T14:45:40;7.88;;;3.58;;
8632;SDS011;4354;49.832;10.746;2022-10-18T14:48:14;6.60;;;3.30;;
8632;SDS011;4354;49.832;10.746;2022-10-18T14:50:43;5.05;;;3.25;;
8632;SDS011;4354;49.832;10.746;2022-10-18T14:53:14;4.90;;;3.20;;
8632;SDS011;4354;49.832;10.746;2022-10-18T14:55:51;4.60;;;3.10;;
8632;SDS011;4354;49.832;10.746;2022-10-18T14:58:19;3.90;;;3.40;;
8632;SDS011;4354;49.832;10.746;2022-10-18T15:00:47;4.50;;;3.00;;
8632;SDS011;4354;49.832;10.746;2022-10-18T15:03:15;4.75;;;3.08;;
8632;SDS011;4354;49.832;10.746;2022-10-18T15:05:59;4.80;;;2.80;;
8632;SDS011;4354;49.832;10.746;2022-10-18T15:08:37;4.35;;;3.33;;
8632;SDS011;4354;49.832;10.746;2022-10-18T15:11:06;5.25;;;3.78;;
8632;SDS011;4354;49.832;10.746;2022-10-18T15:14:00;6.15;;;3.50;;
8632;SDS011;4354;49.832;10.746;2022-10-18T15:16:34;7.55;;;3.42;;
8632;SDS011;4354;49.832;10.746;2022-10-18T15:19:23;5.32;;;3.47;;
8632;SDS011;4354;49.832;10.746;2022-10-18T15:21:54;5.18;;;3.85;;
8632;SDS011;4354;49.832;10.746;2022-10-18T15:27:35;4.45;;;2.80;;
8632;SDS011;4354;49.832;10.746;2022-10-18T15:30:07;2.47;;;1.95;;
8632;SDS011;4354;49.832;10.746;2022-10-18T15:32:58;3.30;;;2.03;;
8632;SDS011;4354;49.832;10.746;2022-10-18T15:35:31;3.28;;;1.90;;
8632;SDS011;4354;49.832;10.746;2022-10-18T15:38:02;3.10;;;1.77;;
8632;SDS011;4354;49.832;10.746;2022-10-18T15:40:42;5.82;;;1.70;;
8632;SDS011;4354;49.832;10.746;2022-10-18T15:43:42;4.18;;;0.98;;
8632;SDS011;4354;49.832;10.746;2022-10-18T15:46:02;1.00;;;0.90;;
8632;SDS011;4354;49.832;10.746;2022-10-18T15:48:33;2.53;;;1.20;;
8632;SDS011;4354;49.832;10.746;2022-10-18T15:51:04;3.75;;;1.83;;
8632;SDS011;4354;49.832;10.746;2022-10-18T15:56:41;2.13;;;1.73;;
8632;SDS011;4354;49.832;10.746;2022-10-18T15:59:22;3.72;;;1.83;;
8632;SDS011;4354;49.832;10.746;2022-10-18T16:01:51;3.22;;;1.58;;
8632;SDS011;4354;49.832;10.746;2022-10-18T16:04:23;4.60;;;2.15;;
8632;SDS011;4354;49.832;10.746;2022-10-18T16:06:51;4.30;;;2.50;;
8632;SDS011;4354;49.832;10.746;2022-10-18T16:09:21;4.85;;;2.97;;
8632;SDS011;4354;49.832;10.746;2022-10-18T16:11:49;4.88;;;3.15;;
8632;SDS011;4354;49.832;10.746;2022-10-18T16:14:22;3.63;;;3.33;;
8632;SDS011;4354;49.832;10.746;2022-10-18T16:17:02;3.63;;;3.20;;
8632;SDS011;4354;49.832;10.746;2022-10-18T16:19:31;4.47;;;3.97;;
8632;SDS011;4354;49.832;10.746;2022-10-18T16:21:58;5.13;;;3.75;;
8632;SDS011;4354;49.832;10.746;2022-10-18T16:24:31;3.42;;;3.15;;
8632;SDS011;4354;49.832;10.746;2022-10-18T16:26:58;3.22;;;2.92;;
8632;SDS011;4354;49.832;10.746;2022-10-18T16:29:25;3.28;;;2.90;;
8632;SDS011;4354;49.832;10.746;2022-10-18T16:31:57;4.38;;;3.78;;
8632;SDS011;4354;49.832;10.746;2022-10-18T16:34:25;5.47;;;4.25;;
8632;SDS011;4354;49.832;10.746;2022-10-18T16:36:52;4.88;;;4.47;;
8632;SDS011;4354;49.832;10.746;2022-10-18T16:39:20;5.93;;;3.70;;
8632;SDS011;4354;49.832;10.746;2022-10-18T16:41:48;4.22;;;3.83;;
8632;SDS011;4354;49.832;10.746;2022-10-18T16:44:16;5.43;;;3.90;;
8632;SDS011;4354;49.832;10.746;2022-10-18T16:46:44;5.03;;;4.28;;
8632;SDS011;4354;49.832;10.746;2022-10-18T16:49:18;5.72;;;4.10;;
8632;SDS011;4354;49.832;10.746;2022-10-18T16:51:50;5.13;;;4.45;;
8632;SDS011;4354;49.832;10.746;2022-10-18T16:54:18;5.05;;;4.65;;
8632;SDS011;4354;49.832;10.746;2022-10-18T16:56:45;8.63;;;4.93;;
8632;SDS011;4354;49.832;10.746;2022-10-18T16:59:39;6.15;;;4.28;;
8632;SDS011;4354;49.832;10.746;2022-10-18T17:02:02;6.15;;;4.07;;
8632;SDS011;4354;49.832;10.746;2022-10-18T17:04:34;9.43;;;4.40;;
8632;SDS011;4354;49.832;10.746;2022-10-18T17:07:00;5.32;;;3.75;;
8632;SDS011;4354;49.832;10.746;2022-10-18T17:09:28;5.95;;;4.65;;
8632;SDS011;4354;49.832;10.746;2022-10-18T17:11:55;8.75;;;5.82;;
8632;SDS011;4354;49.832;10.746;2022-10-18T17:14:22;7.88;;;7.18;;
8632;SDS011;4354;49.832;10.746;2022-10-18T17:16:48;10.88;;;9.43;;
8632;SDS011;4354;49.832;10.746;2022-10-18T17:19:22;10.88;;;9.82;;
8632;SDS011;4354;49.832;10.746;2022-10-18T17:21:49;11.52;;;9.43;;
8632;SDS011;4354;49.832;10.746;2022-10-18T17:24:15;9.90;;;8.95;;
8632;SDS011;4354;49.832;10.746;2022-10-18T17:26:42;10.20;;;9.20;;
8632;SDS011;4354;49.832;10.746;2022-10-18T17:29:09;10.10;;;9.13;;
8632;SDS011;4354;49.832;10.746;2022-10-18T17:31:35;10.70;;;9.35;;
8632;SDS011;4354;49.832;10.746;2022-10-18T17:34:02;10.32;;;9.32;;
8632;SDS011;4354;49.832;10.746;2022-10-18T17:36:30;11.27;;;10.07;;
8632;SDS011;4354;49.832;10.746;2022-10-18T17:38:57;10.45;;;9.45;;
8632;SDS011;4354;49.832;10.746;2022-10-18T17:41:24;12.35;;;9.35;;
8632;SDS011;4354;49.832;10.746;2022-10-18T17:43:51;10.07;;;9.02;;
8632;SDS011;4354;49.832;10.746;2022-10-18T17:46:18;11.52;;;9.27;;
8632;SDS011;4354;49.832;10.746;2022-10-18T17:48:45;13.55;;;8.68;;
8632;SDS011;4354;49.832;10.746;2022-10-18T17:51:13;10.48;;;7.80;;
8632;SDS011;4354;49.832;10.746;2022-10-18T17:53:41;10.02;;;8.63;;
8632;SDS011;4354;49.832;10.746;2022-10-18T17:56:09;15.13;;;11.23;;
8632;SDS011;4354;49.832;10.746;2022-10-18T17:58:37;15.57;;;12.00;;
8632;SDS011;4354;49.832;10.746;2022-10-18T18:01:07;16.10;;;12.60;;
8632;SDS011;4354;49.832;10.746;2022-10-18T18:03:37;14.07;;;12.57;;
8632;SDS011;4354;49.832;10.746;2022-10-18T18:06:24;13.38;;;11.45;;
8632;SDS011;4354;49.832;10.746;2022-10-18T18:09:00;13.60;;;10.30;;